createdAt,value
2022-09-06T00:01:12.355Z,21.34
2022-09-06T00:03:41.320Z,21.41
2022-09-06T00:06:12.631Z,21.41
2022-09-06T00:08:42.690Z,21.44
2022-09-06T00:11:13.085Z,21.40
2022-09-06T00:13:42.068Z,21.39
2022-09-06T00:16:13.393Z,21.38
2022-09-06T00:18:42.412Z,21.36
2022-09-06T00:21:18.692Z,21.36
2022-09-06T00:23:47.170Z,21.31
2022-09-06T00:26:17.622Z,21.32
2022-09-06T00:28:46.198Z,21.31
2022-09-06T00:31:17.804Z,21.28
2022-09-06T00:33:46.615Z,21.27
2022-09-06T00:36:15.809Z,21.28
2022-09-06T00:38:44.678Z,21.18
2022-09-06T00:41:16.692Z,21.15
2022-09-06T00:43:45.643Z,21.15
2022-09-06T00:46:19.394Z,21.16
2022-09-06T00:48:50.906Z,21.19
2022-09-06T00:51:20.663Z,21.20
2022-09-06T00:53:49.253Z,21.20
2022-09-06T00:56:19.226Z,21.14
2022-09-06T00:58:48.902Z,21.08
2022-09-06T01:01:17.397Z,21.00
2022-09-06T01:03:46.032Z,20.90
2022-09-06T01:06:26.377Z,20.82
2022-09-06T01:09:06.824Z,20.84
2022-09-06T01:12:01.360Z,20.86
2022-09-06T01:14:43.143Z,20.80
2022-09-06T01:17:25.640Z,20.84
2022-09-06T01:20:39.120Z,20.85
2022-09-06T01:24:00.084Z,20.92
2022-09-06T01:27:08.459Z,20.87
2022-09-06T01:29:46.116Z,20.83
2022-09-06T01:32:22.216Z,20.86
2022-09-06T01:34:56.491Z,20.84
2022-09-06T01:37:25.515Z,20.81
2022-09-06T01:39:54.045Z,20.84
2022-09-06T01:42:27.025Z,20.83
2022-09-06T01:45:01.486Z,20.83
2022-09-06T01:47:46.140Z,20.80
2022-09-06T01:50:36.215Z,20.75
2022-09-06T01:53:15.168Z,20.70
2022-09-06T01:55:51.132Z,20.69
2022-09-06T01:58:44.419Z,20.69
2022-09-06T02:01:23.179Z,20.72
2022-09-06T02:04:00.836Z,20.73
2022-09-06T02:06:32.659Z,20.78
2022-09-06T02:09:07.805Z,21.27
2022-09-06T02:11:43.213Z,21.14
2022-09-06T02:14:17.157Z,21.28
2022-09-06T02:16:49.099Z,21.37
2022-09-06T02:19:23.170Z,21.29
2022-09-06T02:21:55.597Z,21.27
2022-09-06T02:24:30.083Z,21.28
2022-09-06T02:26:58.801Z,21.28
2022-09-06T02:29:27.455Z,21.41
2022-09-06T02:32:03.020Z,21.53
2022-09-06T02:34:31.877Z,21.62
2022-09-06T02:37:01.862Z,21.63
2022-09-06T02:39:30.412Z,21.69
2022-09-06T02:42:00.099Z,21.64
2022-09-06T02:44:28.751Z,21.70
2022-09-06T02:46:58.592Z,21.76
2022-09-06T02:49:27.005Z,21.75
2022-09-06T02:51:55.506Z,21.74
2022-09-06T02:54:23.932Z,21.68
2022-09-06T02:56:52.722Z,21.61
2022-09-06T02:59:21.169Z,21.58
2022-09-06T03:01:49.644Z,21.58
2022-09-06T03:04:19.447Z,21.67
2022-09-06T03:06:47.950Z,21.76
2022-09-06T03:09:16.400Z,21.78
2022-09-06T03:11:44.889Z,21.71
2022-09-06T03:14:13.404Z,21.70
2022-09-06T03:16:41.830Z,21.69
2022-09-06T03:19:10.411Z,21.63
2022-09-06T03:21:40.417Z,21.64
2022-09-06T03:24:08.881Z,21.61
2022-09-06T03:26:37.296Z,21.62
2022-09-06T03:29:06.091Z,21.62
2022-09-06T03:31:34.518Z,21.57
2022-09-06T03:34:02.974Z,21.53
2022-09-06T03:36:31.476Z,21.52
2022-09-06T03:39:01.359Z,21.46
2022-09-06T03:41:29.802Z,21.40
2022-09-06T03:43:58.264Z,21.37
2022-09-06T03:46:30.419Z,21.42
2022-09-06T03:48:59.293Z,21.36
2022-09-06T03:51:27.957Z,21.30
2022-09-06T03:53:57.729Z,21.29
2022-09-06T03:56:27.584Z,21.24
2022-09-06T03:58:56.137Z,21.22
2022-09-06T04:01:24.763Z,21.12
2022-09-06T04:03:53.508Z,21.14
2022-09-06T04:06:21.952Z,21.13
2022-09-06T04:08:50.422Z,21.11
2022-09-06T04:11:18.947Z,21.10
2022-09-06T04:13:48.851Z,21.09
2022-09-06T04:16:18.696Z,21.03
2022-09-06T04:18:47.305Z,20.90
2022-09-06T04:21:15.750Z,20.81
2022-09-06T04:23:44.160Z,20.75
2022-09-06T04:26:12.644Z,20.80
2022-09-06T04:28:41.093Z,20.75
2022-09-06T04:31:10.938Z,20.70
2022-09-06T04:33:39.821Z,20.57
2022-09-06T04:36:11.747Z,20.53
2022-09-06T04:38:43.010Z,20.48
2022-09-06T04:41:13.918Z,20.41
2022-09-06T04:43:42.446Z,20.45
2022-09-06T04:46:24.887Z,20.41
2022-09-06T04:48:54.760Z,20.39
2022-09-06T04:51:25.108Z,20.34
2022-09-06T04:53:53.781Z,20.28
2022-09-06T04:56:24.619Z,20.23
2022-09-06T04:58:54.821Z,20.24
2022-09-06T05:01:26.291Z,20.21
2022-09-06T05:03:56.909Z,20.22
2022-09-06T05:06:26.659Z,20.13
2022-09-06T05:08:55.221Z,20.11
2022-09-06T05:11:24.797Z,20.10
2022-09-06T05:13:53.360Z,20.08
2022-09-06T05:16:21.826Z,20.06
2022-09-06T05:18:51.689Z,20.01
2022-09-06T05:21:20.399Z,19.96
2022-09-06T05:23:48.906Z,19.93
2022-09-06T05:26:17.369Z,19.94
2022-09-06T05:28:45.904Z,19.98
2022-09-06T05:31:28.148Z,19.99
2022-09-06T05:33:58.582Z,19.98
2022-09-06T05:36:27.817Z,20.06
2022-09-06T05:38:57.833Z,20.11
2022-09-06T05:41:26.924Z,20.16
2022-09-06T05:43:55.392Z,20.18
2022-09-06T05:46:23.927Z,20.24
2022-09-06T05:49:01.133Z,20.24
2022-09-06T05:51:29.677Z,20.27
2022-09-06T05:53:58.133Z,20.24
2022-09-06T05:56:26.832Z,20.27
2022-09-06T05:58:55.408Z,20.32
2022-09-06T06:01:26.733Z,20.31
2022-09-06T06:03:58.957Z,20.31
2022-09-06T06:06:30.137Z,20.32
2022-09-06T06:08:58.901Z,20.37
2022-09-06T06:11:28.499Z,20.40
2022-09-06T06:13:58.835Z,20.42
2022-09-06T06:16:27.454Z,20.45
2022-09-06T06:18:57.586Z,20.49
2022-09-06T06:21:27.983Z,20.53
2022-09-06T06:23:59.394Z,20.55
2022-09-06T06:26:29.457Z,20.61
2022-09-06T06:29:01.738Z,20.67
2022-09-06T06:31:31.387Z,20.80
2022-09-06T06:34:03.240Z,20.90
2022-09-06T06:36:33.861Z,21.00
2022-09-06T06:39:04.183Z,21.04
2022-09-06T06:41:34.758Z,21.08
2022-09-06T06:44:05.990Z,21.12
2022-09-06T06:46:37.459Z,21.21
2022-09-06T06:49:07.530Z,21.27
2022-09-06T06:51:38.227Z,21.28
2022-09-06T06:54:07.393Z,21.39
2022-09-06T06:56:38.426Z,21.42
2022-09-06T06:59:08.446Z,21.42
2022-09-06T07:01:37.952Z,21.49
2022-09-06T07:04:10.436Z,21.73
2022-09-06T07:12:27.887Z,23.71
2022-09-06T07:14:56.318Z,23.74
2022-09-06T07:17:24.949Z,24.35
2022-09-06T07:22:43.437Z,25.85
2022-09-06T07:25:14.487Z,26.20
2022-09-06T07:30:20.690Z,26.65
2022-09-06T07:32:49.526Z,27.44
2022-09-06T07:35:20.484Z,28.19
2022-09-06T07:37:56.548Z,28.37
2022-09-06T07:40:25.427Z,28.94
2022-09-06T07:42:54.061Z,28.68
2022-09-06T07:45:22.451Z,27.85
2022-09-06T07:50:48.868Z,26.29
2022-09-06T07:53:26.312Z,27.44
2022-09-06T07:56:00.537Z,27.80
2022-09-06T07:58:30.261Z,27.60
2022-09-06T08:01:31.506Z,26.75
2022-09-06T08:04:01.635Z,28.24
2022-09-06T08:09:23.237Z,29.72
2022-09-06T08:11:52.888Z,29.59
2022-09-06T08:14:21.513Z,29.85
2022-09-06T08:16:50.237Z,29.46
2022-09-06T08:19:18.663Z,30.05
2022-09-06T08:21:48.512Z,30.41
2022-09-06T08:24:17.119Z,30.33
2022-09-06T08:26:45.540Z,30.61
2022-09-06T08:29:14.905Z,30.31
2022-09-06T08:31:46.676Z,30.25
2022-09-06T08:34:16.006Z,30.37
2022-09-06T08:36:45.460Z,29.91
2022-09-06T08:39:15.529Z,29.81
2022-09-06T08:41:51.349Z,29.82
2022-09-06T08:47:14.603Z,30.56
2022-09-06T08:49:46.299Z,30.92
2022-09-06T08:52:54.370Z,30.53
2022-09-06T08:55:38.566Z,30.16
2022-09-06T08:58:46.789Z,30.45
2022-09-06T09:01:23.128Z,30.66
2022-09-06T09:03:54.339Z,30.76
2022-09-06T09:06:25.249Z,31.38
2022-09-06T09:09:03.585Z,31.06
2022-09-06T09:11:36.097Z,30.98
2022-09-06T09:14:10.048Z,31.07
2022-09-06T09:16:38.536Z,31.21
2022-09-06T09:19:09.377Z,31.18
2022-09-06T09:21:40.507Z,31.50
2022-09-06T09:24:12.127Z,31.20
2022-09-06T09:26:51.604Z,30.72
2022-09-06T09:29:25.339Z,30.48
2022-09-06T09:31:57.660Z,30.88
2022-09-06T09:34:33.760Z,31.36
2022-09-06T09:40:15.231Z,31.21
2022-09-06T09:42:45.899Z,31.74
2022-09-06T09:45:30.590Z,31.35
2022-09-06T09:48:18.125Z,31.63
2022-09-06T09:50:47.701Z,31.47
2022-09-06T09:53:19.280Z,31.22
2022-09-06T09:55:48.070Z,31.67
2022-09-06T09:58:31.887Z,31.82
2022-09-06T10:01:19.080Z,31.31
2022-09-06T10:09:36.541Z,31.70
2022-09-06T10:12:07.387Z,31.69
2022-09-06T10:14:43.513Z,31.27
2022-09-06T10:17:22.038Z,31.23
2022-09-06T10:19:50.489Z,31.49
2022-09-06T10:22:30.918Z,31.50
2022-09-06T10:25:36.583Z,31.26
2022-09-06T10:28:30.214Z,30.75
2022-09-06T10:31:14.176Z,31.15
2022-09-06T10:33:58.916Z,31.71
2022-09-06T10:36:33.812Z,31.71
2022-09-06T10:39:06.327Z,31.70
2022-09-06T10:41:51.305Z,31.96
2022-09-06T10:44:46.769Z,31.98
2022-09-06T10:47:17.554Z,31.85
2022-09-06T10:49:49.867Z,31.94
2022-09-06T10:52:25.649Z,31.63
2022-09-06T10:55:02.451Z,31.76
2022-09-06T11:00:24.954Z,31.70
2022-09-06T11:06:04.259Z,31.49
2022-09-06T11:08:47.935Z,31.45
2022-09-06T11:11:23.228Z,31.10
2022-09-06T11:13:51.657Z,31.27
2022-09-06T11:16:25.095Z,31.60
2022-09-06T11:18:59.530Z,31.59
2022-09-06T11:22:00.964Z,31.04
2022-09-06T11:24:45.480Z,31.48
2022-09-06T11:27:20.493Z,31.35
2022-09-06T11:29:56.294Z,31.61
2022-09-06T11:32:34.693Z,31.35
2022-09-06T11:35:10.093Z,31.77
2022-09-06T11:37:42.930Z,30.61
2022-09-06T11:40:27.423Z,30.67
2022-09-06T11:43:49.383Z,30.34
2022-09-06T11:46:58.889Z,30.88
2022-09-06T11:49:39.184Z,30.82
2022-09-06T11:53:03.203Z,30.95
2022-09-06T11:55:37.956Z,30.60
2022-09-06T11:58:12.328Z,30.32
2022-09-06T12:00:40.642Z,30.40
2022-09-06T12:06:20.262Z,30.39
2022-09-06T12:08:52.672Z,30.62
2022-09-06T12:11:37.479Z,30.58
2022-09-06T12:14:09.436Z,30.55
2022-09-06T12:17:27.119Z,30.09
2022-09-06T12:20:06.892Z,30.18
2022-09-06T12:22:54.356Z,30.49
2022-09-06T12:25:58.554Z,30.62
2022-09-06T12:28:43.614Z,30.60
2022-09-06T12:31:38.416Z,30.67
2022-09-06T12:34:19.112Z,30.29
2022-09-06T12:36:58.189Z,29.75
2022-09-06T12:39:26.830Z,29.73
2022-09-06T12:42:02.995Z,29.62
2022-09-06T12:44:37.431Z,29.42
2022-09-06T12:47:12.339Z,29.18
2022-09-06T12:49:41.070Z,29.42
2022-09-06T12:52:12.829Z,29.66
2022-09-06T12:54:47.706Z,29.29
2022-09-06T12:57:20.994Z,29.01
2022-09-06T12:59:54.902Z,28.40
2022-09-06T13:02:32.853Z,28.94
2022-09-06T13:05:13.829Z,28.91
2022-09-06T13:07:46.570Z,28.41
2022-09-06T13:10:18.347Z,28.96
2022-09-06T13:12:50.678Z,29.01
2022-09-06T13:15:22.406Z,28.78
2022-09-06T13:17:50.844Z,28.57
2022-09-06T13:20:28.170Z,28.51
2022-09-06T13:23:09.658Z,28.45
2022-09-06T13:25:49.230Z,28.34
2022-09-06T13:28:28.251Z,27.99
2022-09-06T13:31:09.591Z,27.92
2022-09-06T13:33:38.935Z,28.10
2022-09-06T13:36:24.016Z,27.92
2022-09-06T13:38:52.422Z,27.91
2022-09-06T13:41:57.459Z,27.90
2022-09-06T13:44:33.066Z,27.60
2022-09-06T13:47:01.718Z,27.63
2022-09-06T13:49:30.806Z,27.64
2022-09-06T13:52:02.309Z,27.48
2022-09-06T13:54:32.141Z,27.74
2022-09-06T13:57:01.831Z,27.76
2022-09-06T13:59:31.744Z,27.99
2022-09-06T14:02:04.901Z,28.13
2022-09-06T14:04:33.461Z,27.85
2022-09-06T14:07:01.896Z,27.50
2022-09-06T14:09:30.640Z,27.44
2022-09-06T14:11:59.415Z,27.57
2022-09-06T14:14:28.083Z,27.80
2022-09-06T14:16:58.338Z,27.75
2022-09-06T14:19:26.987Z,27.67
2022-09-06T14:21:55.851Z,27.65
2022-09-06T14:24:24.623Z,27.69
2022-09-06T14:26:53.196Z,27.80
2022-09-06T14:29:21.776Z,27.63
2022-09-06T14:31:50.252Z,27.56
2022-09-06T14:34:20.029Z,28.09
2022-09-06T14:36:48.531Z,27.83
2022-09-06T14:39:16.918Z,27.52
2022-09-06T14:41:45.555Z,27.71
2022-09-06T14:44:14.196Z,28.06
2022-09-06T14:46:42.792Z,27.88
2022-09-06T14:49:11.740Z,28.12
2022-09-06T14:51:41.727Z,28.11
2022-09-06T14:54:13.636Z,27.59
2022-09-06T14:56:44.158Z,28.00
2022-09-06T14:59:13.326Z,28.05
2022-09-06T15:01:42.443Z,27.94
2022-09-06T15:04:12.616Z,27.65
2022-09-06T15:06:47.126Z,27.73
2022-09-06T15:09:16.607Z,27.91
2022-09-06T15:11:48.053Z,28.11
2022-09-06T15:14:19.111Z,27.93
2022-09-06T15:16:53.471Z,27.80
2022-09-06T15:19:24.695Z,28.01
2022-09-06T15:21:55.318Z,27.94
2022-09-06T15:24:24.069Z,27.87
2022-09-06T15:26:52.672Z,28.00
2022-09-06T15:29:21.550Z,27.67
2022-09-06T15:31:51.917Z,27.46
2022-09-06T15:34:24.439Z,27.35
2022-09-06T15:36:56.620Z,27.25
2022-09-06T15:39:25.296Z,27.16
2022-09-06T15:41:53.994Z,27.54
2022-09-06T15:44:22.722Z,27.37
2022-09-06T15:46:53.944Z,27.20
2022-09-06T15:49:28.062Z,27.20
2022-09-06T15:51:59.495Z,27.24
2022-09-06T15:54:46.970Z,27.33
2022-09-06T15:57:16.831Z,27.46
2022-09-06T15:59:45.567Z,27.62
2022-09-06T16:02:15.172Z,27.67
2022-09-06T16:04:43.913Z,27.13
2022-09-06T16:07:13.939Z,27.03
2022-09-06T16:09:42.585Z,27.04
2022-09-06T16:12:11.287Z,26.97
2022-09-06T16:14:39.927Z,26.92
2022-09-06T16:17:08.663Z,26.77
2022-09-06T16:19:37.277Z,26.61
2022-09-06T16:22:05.998Z,26.59
2022-09-06T16:24:36.064Z,26.56
2022-09-06T16:27:04.873Z,26.48
2022-09-06T16:29:33.455Z,26.51
2022-09-06T16:32:02.030Z,26.44
2022-09-06T16:34:30.606Z,26.51
2022-09-06T16:37:00.020Z,26.47
2022-09-06T16:39:28.751Z,26.45
2022-09-06T16:41:58.789Z,26.46
2022-09-06T16:44:27.492Z,26.41
2022-09-06T16:46:57.491Z,26.41
2022-09-06T16:49:26.218Z,26.42
2022-09-06T16:51:54.811Z,26.51
2022-09-06T16:54:23.419Z,26.78
2022-09-06T16:56:52.720Z,26.71
2022-09-06T16:59:22.789Z,26.93
2022-09-06T17:01:52.355Z,26.76
2022-09-06T17:04:21.646Z,26.43
2022-09-06T17:06:50.268Z,26.39
2022-09-06T17:09:20.304Z,26.32
2022-09-06T17:11:50.299Z,26.05
2022-09-06T17:14:19.518Z,25.93
2022-09-06T17:17:07.419Z,25.96
2022-09-06T17:19:37.785Z,25.62
2022-09-06T17:22:06.820Z,25.05
2022-09-06T17:24:35.728Z,24.70
2022-09-06T17:27:04.622Z,24.66
2022-09-06T17:29:33.464Z,24.75
2022-09-06T17:32:09.923Z,24.61
2022-09-06T17:34:38.998Z,24.43
2022-09-06T17:37:07.657Z,24.18
2022-09-06T17:39:36.624Z,24.30
2022-09-06T17:42:06.026Z,24.08
2022-09-06T17:44:34.687Z,23.92
2022-09-06T17:47:13.593Z,23.82
2022-09-06T17:49:42.634Z,23.69
2022-09-06T17:52:12.149Z,23.82
2022-09-06T17:54:40.688Z,24.19
2022-09-06T17:57:09.264Z,23.67
2022-09-06T17:59:38.487Z,23.62
2022-09-06T18:02:09.275Z,23.90
2022-09-06T18:04:38.224Z,23.36
2022-09-06T18:07:07.158Z,23.38
2022-09-06T18:09:36.955Z,23.33
2022-09-06T18:12:06.851Z,23.05
2022-09-06T18:14:35.705Z,22.91
2022-09-06T18:17:04.406Z,22.44
2022-09-06T18:19:34.385Z,22.16
2022-09-06T18:22:04.609Z,22.14
2022-09-06T18:24:34.529Z,22.28
2022-09-06T18:27:03.109Z,22.15
2022-09-06T18:29:32.961Z,22.01
2022-09-06T18:32:01.601Z,21.89
2022-09-06T18:34:30.286Z,21.98
2022-09-06T18:37:00.398Z,22.12
2022-09-06T18:39:29.073Z,22.10
2022-09-06T18:42:00.865Z,22.27
2022-09-06T18:44:32.348Z,22.39
2022-09-06T18:47:02.773Z,22.50
2022-09-06T18:49:32.527Z,22.32
2022-09-06T18:52:03.614Z,22.17
2022-09-06T18:54:33.170Z,22.03
2022-09-06T18:57:01.853Z,22.06
2022-09-06T18:59:30.462Z,22.08
2022-09-06T19:01:59.301Z,22.06
2022-09-06T19:04:28.181Z,22.11
2022-09-06T19:06:56.823Z,22.40
2022-09-06T19:09:26.789Z,22.31
2022-09-06T19:11:55.343Z,22.12
2022-09-06T19:14:24.125Z,22.16
2022-09-06T19:16:54.129Z,22.48
2022-09-06T19:19:23.158Z,22.55
2022-09-06T19:21:51.844Z,22.34
2022-09-06T19:24:22.676Z,22.31
2022-09-06T19:26:53.539Z,22.24
2022-09-06T19:29:22.239Z,22.19
2022-09-06T19:31:52.247Z,22.25
2022-09-06T19:34:21.149Z,22.17
2022-09-06T19:36:50.114Z,22.08
2022-09-06T19:39:19.225Z,22.03
2022-09-06T19:41:47.857Z,22.14
2022-09-06T19:44:20.700Z,22.05
2022-09-06T19:46:49.741Z,22.11
2022-09-06T19:49:20.282Z,22.00
2022-09-06T19:51:50.914Z,21.95
2022-09-06T19:54:20.180Z,21.96
2022-09-06T19:56:48.865Z,21.91
2022-09-06T19:59:19.182Z,21.87
2022-09-06T20:01:48.404Z,21.83
2022-09-06T20:04:17.444Z,21.84
2022-09-06T20:06:46.193Z,21.89
2022-09-06T20:09:16.542Z,21.82
2022-09-06T20:11:46.470Z,21.86
2022-09-06T20:14:15.712Z,21.83
2022-09-06T20:16:45.925Z,21.70
2022-09-06T20:19:15.823Z,21.67
2022-09-06T20:21:45.287Z,21.66
2022-09-06T20:24:13.887Z,21.60
2022-09-06T20:26:42.931Z,21.51
2022-09-06T20:29:11.530Z,21.48
2022-09-06T20:31:40.351Z,21.41
2022-09-06T20:34:11.439Z,21.37
2022-09-06T20:36:40.011Z,21.27
2022-09-06T20:39:09.662Z,21.23
2022-09-06T20:41:38.550Z,21.21
2022-09-06T20:44:07.212Z,21.21
2022-09-06T20:46:36.386Z,21.13
2022-09-06T20:49:06.766Z,21.10
2022-09-06T20:51:40.314Z,21.09
2022-09-06T20:54:08.974Z,21.08
2022-09-06T20:56:40.547Z,21.15
2022-09-06T20:59:12.537Z,21.21
2022-09-06T21:01:43.499Z,21.16
2022-09-06T21:04:14.554Z,21.19
2022-09-06T21:06:45.830Z,21.12
2022-09-06T21:09:15.914Z,21.14
2022-09-06T21:11:45.224Z,21.12
2022-09-06T21:14:14.944Z,21.13
2022-09-06T21:16:43.597Z,20.97
2022-09-06T21:19:13.563Z,20.84
2022-09-06T21:21:44.298Z,20.85
2022-09-06T21:24:13.390Z,20.67
2022-09-06T21:26:44.361Z,20.54
2022-09-06T21:29:12.898Z,20.53
2022-09-06T21:31:41.538Z,20.51
2022-09-06T21:34:16.877Z,20.48
2022-09-06T21:36:47.264Z,20.45
2022-09-06T21:39:16.354Z,20.43
2022-09-06T21:41:45.800Z,20.52
2022-09-06T21:44:14.613Z,20.50
2022-09-06T21:46:43.458Z,20.55
2022-09-06T21:49:13.964Z,20.67
2022-09-06T21:51:43.204Z,20.68
2022-09-06T21:54:13.341Z,20.71
2022-09-06T21:56:42.160Z,20.64
2022-09-06T21:59:11.582Z,20.60
2022-09-06T22:01:43.953Z,20.62
2022-09-06T22:04:14.303Z,20.58
2022-09-06T22:06:42.835Z,20.54
2022-09-06T22:09:14.418Z,20.62
2022-09-06T22:11:45.497Z,20.67
2022-09-06T22:14:15.977Z,20.68
2022-09-06T22:16:44.811Z,20.71
2022-09-06T22:19:13.764Z,20.76
2022-09-06T22:21:42.272Z,20.77
2022-09-06T22:24:14.291Z,20.79
2022-09-06T22:26:43.145Z,20.75
2022-09-06T22:29:13.718Z,20.73
2022-09-06T22:31:42.969Z,20.66
2022-09-06T22:34:12.059Z,20.61
2022-09-06T22:36:41.181Z,20.65
2022-09-06T22:39:09.876Z,20.88
2022-09-06T22:41:39.827Z,20.94
2022-09-06T22:44:08.587Z,20.80
2022-09-06T22:46:38.311Z,20.71
2022-09-06T22:49:07.059Z,20.74
2022-09-06T22:51:35.543Z,20.82
2022-09-06T22:54:04.758Z,20.80
2022-09-06T22:56:33.623Z,20.73
2022-09-06T22:59:04.077Z,20.68
2022-09-06T23:01:33.938Z,20.69
2022-09-06T23:04:02.470Z,20.62
2022-09-06T23:06:30.995Z,20.57
2022-09-06T23:09:00.070Z,20.47
2022-09-06T23:11:28.996Z,20.51
2022-09-06T23:13:58.059Z,20.55
2022-09-06T23:16:29.269Z,20.56
2022-09-06T23:18:58.231Z,20.46
2022-09-06T23:21:27.754Z,20.41
2022-09-06T23:23:57.925Z,20.44
2022-09-06T23:26:30.598Z,20.39
2022-09-06T23:29:00.162Z,20.36
2022-09-06T23:31:32.631Z,20.41
2022-09-06T23:34:02.813Z,20.29
2022-09-06T23:36:32.681Z,20.25
2022-09-06T23:39:02.389Z,20.22
2022-09-06T23:41:31.265Z,20.23
2022-09-06T23:43:59.865Z,20.27
2022-09-06T23:46:31.243Z,20.36
2022-09-06T23:49:00.029Z,20.45
2022-09-06T23:51:28.588Z,20.48
2022-09-06T23:53:58.383Z,20.45
2022-09-06T23:56:26.982Z,20.44
2022-09-06T23:58:55.526Z,20.41
